sensor_id;sensor_type;location;lat;lon;timestamp;temperature;humidity
21801;DHT22;11062;51.164;16.924;2023-11-19T00:01:35;30.10;35.60
21801;DHT22;11062;51.164;16.924;2023-11-19T00:04:01;30.20;35.70
21801;DHT22;11062;51.164;16.924;2023-11-19T00:06:27;30.20;35.60
21801;DHT22;11062;51.164;16.924;2023-11-19T00:08:53;30.20;35.70
21801;DHT22;11062;51.164;16.924;2023-11-19T00:11:22;30.10;35.50
21801;DHT22;11062;51.164;16.924;2023-11-19T00:13:48;30.10;35.60
21801;DHT22;11062;51.164;16.924;2023-11-19T00:16:18;30.10;35.70
21801;DHT22;11062;51.164;16.924;2023-11-19T00:18:44;30.00;35.70
21801;DHT22;11062;51.164;16.924;2023-11-19T00:21:16;30.10;35.70
21801;DHT22;11062;51.164;16.924;2023-11-19T00:23:42;30.00;35.70
21801;DHT22;11062;51.164;16.924;2023-11-19T00:26:30;30.00;35.70
21801;DHT22;11062;51.164;16.924;2023-11-19T00:29:47;30.10;35.60
21801;DHT22;11062;51.164;16.924;2023-11-19T00:35:34;30.10;35.70
21801;DHT22;11062;51.164;16.924;2023-11-19T00:42:01;30.10;35.50
21801;DHT22;11062;51.164;16.924;2023-11-19T00:45:51;30.10;35.60
21801;DHT22;11062;51.164;16.924;2023-11-19T00:49:18;30.00;35.60
21801;DHT22;11062;51.164;16.924;2023-11-19T00:52:55;29.90;35.60
21801;DHT22;11062;51.164;16.924;2023-11-19T00:56:32;30.00;35.60
21801;DHT22;11062;51.164;16.924;2023-11-19T01:00:06;30.00;35.70
21801;DHT22;11062;51.164;16.924;2023-11-19T01:27:21;30.10;35.40
21801;DHT22;11062;51.164;16.924;2023-11-19T01:51:00;29.90;35.00
21801;DHT22;11062;51.164;16.924;2023-11-19T01:53:27;29.80;35.30
21801;DHT22;11062;51.164;16.924;2023-11-19T01:55:54;29.80;35.90
21801;DHT22;11062;51.164;16.924;2023-11-19T01:58:21;29.80;35.20
21801;DHT22;11062;51.164;16.924;2023-11-19T02:00:48;29.80;35.10
21801;DHT22;11062;51.164;16.924;2023-11-19T02:03:17;29.80;35.20
21801;DHT22;11062;51.164;16.924;2023-11-19T02:05:48;29.80;34.90
21801;DHT22;11062;51.164;16.924;2023-11-19T02:08:16;29.90;35.10
21801;DHT22;11062;51.164;16.924;2023-11-19T02:11:25;29.90;35.20
21801;DHT22;11062;51.164;16.924;2023-11-19T03:04:42;29.50;35.30
21801;DHT22;11062;51.164;16.924;2023-11-19T03:11:01;29.60;35.10
21801;DHT22;11062;51.164;16.924;2023-11-19T03:35:35;29.20;35.00
21801;DHT22;11062;51.164;16.924;2023-11-19T04:16:51;29.10;35.00
21801;DHT22;11062;51.164;16.924;2023-11-19T04:40:55;28.50;35.00
21801;DHT22;11062;51.164;16.924;2023-11-19T04:43:24;28.70;35.30
21801;DHT22;11062;51.164;16.924;2023-11-19T04:45:53;28.80;35.20
21801;DHT22;11062;51.164;16.924;2023-11-19T04:48:19;28.80;35.10
21801;DHT22;11062;51.164;16.924;2023-11-19T04:50:45;28.70;35.10
21801;DHT22;11062;51.164;16.924;2023-11-19T04:53:14;28.60;35.20
21801;DHT22;11062;51.164;16.924;2023-11-19T04:55:41;28.70;35.20
21801;DHT22;11062;51.164;16.924;2023-11-19T04:58:12;28.60;35.20
21801;DHT22;11062;51.164;16.924;2023-11-19T05:00:41;28.40;35.20
21801;DHT22;11062;51.164;16.924;2023-11-19T05:03:07;28.60;35.30
21801;DHT22;11062;51.164;16.924;2023-11-19T05:05:33;28.50;35.10
21801;DHT22;11062;51.164;16.924;2023-11-19T05:07:59;28.70;35.30
21801;DHT22;11062;51.164;16.924;2023-11-19T05:10:25;28.70;35.30
21801;DHT22;11062;51.164;16.924;2023-11-19T05:12:51;28.70;35.30
21801;DHT22;11062;51.164;16.924;2023-11-19T05:15:20;28.80;35.00
21801;DHT22;11062;51.164;16.924;2023-11-19T05:46:04;28.30;35.20
21801;DHT22;11062;51.164;16.924;2023-11-19T05:48:30;28.20;35.20
21801;DHT22;11062;51.164;16.924;2023-11-19T05:50:59;28.30;35.20
21801;DHT22;11062;51.164;16.924;2023-11-19T05:53:25;27.10;35.00
21801;DHT22;11062;51.164;16.924;2023-11-19T05:55:51;27.40;36.10
21801;DHT22;11062;51.164;16.924;2023-11-19T05:58:25;27.40;36.00
21801;DHT22;11062;51.164;16.924;2023-11-19T06:00:57;27.20;36.20
21801;DHT22;11062;51.164;16.924;2023-11-19T08:14:04;27.60;37.50
21801;DHT22;11062;51.164;16.924;2023-11-19T08:16:30;27.80;37.90
21801;DHT22;11062;51.164;16.924;2023-11-19T08:18:56;27.40;37.50
21801;DHT22;11062;51.164;16.924;2023-11-19T08:21:24;27.20;38.00
21801;DHT22;11062;51.164;16.924;2023-11-19T08:23:52;27.40;38.70
21801;DHT22;11062;51.164;16.924;2023-11-19T08:26:18;26.80;38.20
21801;DHT22;11062;51.164;16.924;2023-11-19T08:28:44;27.10;38.20
21801;DHT22;11062;51.164;16.924;2023-11-19T08:31:13;27.20;38.70
21801;DHT22;11062;51.164;16.924;2023-11-19T08:48:50;26.80;38.80
21801;DHT22;11062;51.164;16.924;2023-11-19T08:52:12;27.10;39.10
21801;DHT22;11062;51.164;16.924;2023-11-19T09:13:13;27.20;39.10
21801;DHT22;11062;51.164;16.924;2023-11-19T09:15:39;27.70;39.10
21801;DHT22;11062;51.164;16.924;2023-11-19T09:18:08;27.70;38.60
21801;DHT22;11062;51.164;16.924;2023-11-19T09:20:34;28.00;38.60
21801;DHT22;11062;51.164;16.924;2023-11-19T09:23:04;28.30;38.30
21801;DHT22;11062;51.164;16.924;2023-11-19T09:25:31;28.00;37.80
21801;DHT22;11062;51.164;16.924;2023-11-19T09:28:02;28.40;38.20
21801;DHT22;11062;51.164;16.924;2023-11-19T09:30:37;28.60;37.80
21801;DHT22;11062;51.164;16.924;2023-11-19T09:33:03;28.50;37.60
21801;DHT22;11062;51.164;16.924;2023-11-19T09:35:29;28.90;37.80
21801;DHT22;11062;51.164;16.924;2023-11-19T09:37:58;28.90;37.50
21801;DHT22;11062;51.164;16.924;2023-11-19T09:40:31;28.90;37.80
21801;DHT22;11062;51.164;16.924;2023-11-19T09:42:59;29.10;37.80
21801;DHT22;11062;51.164;16.924;2023-11-19T09:45:29;29.10;37.50
21801;DHT22;11062;51.164;16.924;2023-11-19T09:48:00;29.20;37.80
21801;DHT22;11062;51.164;16.924;2023-11-19T10:29:07;28.30;39.50
21801;DHT22;11062;51.164;16.924;2023-11-19T10:41:58;27.60;40.50
21801;DHT22;11062;51.164;16.924;2023-11-19T10:45:38;27.10;40.60
21801;DHT22;11062;51.164;16.924;2023-11-19T10:55:21;27.30;41.10
21801;DHT22;11062;51.164;16.924;2023-11-19T10:58:23;27.50;41.10
21801;DHT22;11062;51.164;16.924;2023-11-19T11:04:29;27.00;41.30
21801;DHT22;11062;51.164;16.924;2023-11-19T11:07:47;27.70;41.30
21801;DHT22;11062;51.164;16.924;2023-11-19T11:11:01;27.40;41.50
21801;DHT22;11062;51.164;16.924;2023-11-19T13:00:42;31.80;39.10
21801;DHT22;11062;51.164;16.924;2023-11-19T13:18:37;32.70;37.70
21801;DHT22;11062;51.164;16.924;2023-11-19T13:21:11;32.80;37.90
21801;DHT22;11062;51.164;16.924;2023-11-19T13:45:25;33.60;38.20
21801;DHT22;11062;51.164;16.924;2023-11-19T13:47:52;33.60;38.10
21801;DHT22;11062;51.164;16.924;2023-11-19T13:50:18;33.80;37.80
21801;DHT22;11062;51.164;16.924;2023-11-19T13:52:45;33.90;37.60
21801;DHT22;11062;51.164;16.924;2023-11-19T13:55:13;34.00;37.60
21801;DHT22;11062;51.164;16.924;2023-11-19T14:19:46;34.80;36.70
21801;DHT22;11062;51.164;16.924;2023-11-19T14:22:12;34.70;36.50
21801;DHT22;11062;51.164;16.924;2023-11-19T14:33:33;34.30;36.90
21801;DHT22;11062;51.164;16.924;2023-11-19T15:08:13;32.80;38.80
21801;DHT22;11062;51.164;16.924;2023-11-19T15:10:44;32.80;39.00
21801;DHT22;11062;51.164;16.924;2023-11-19T15:13:11;32.90;39.00
21801;DHT22;11062;51.164;16.924;2023-11-19T15:15:37;32.80;39.00
21801;DHT22;11062;51.164;16.924;2023-11-19T15:18:04;32.70;38.90
21801;DHT22;11062;51.164;16.924;2023-11-19T15:20:30;32.60;39.20
21801;DHT22;11062;51.164;16.924;2023-11-19T15:22:57;32.60;39.20
21801;DHT22;11062;51.164;16.924;2023-11-19T15:25:27;32.60;39.30
21801;DHT22;11062;51.164;16.924;2023-11-19T15:28:48;32.60;39.60
21801;DHT22;11062;51.164;16.924;2023-11-19T15:52:48;31.20;40.90
21801;DHT22;11062;51.164;16.924;2023-11-19T15:55:20;31.00;41.50
21801;DHT22;11062;51.164;16.924;2023-11-19T16:41:08;31.20;41.20
21801;DHT22;11062;51.164;16.924;2023-11-19T17:04:09;32.00;39.80
21801;DHT22;11062;51.164;16.924;2023-11-19T17:06:38;31.90;39.80
21801;DHT22;11062;51.164;16.924;2023-11-19T17:30:35;31.60;40.10
21801;DHT22;11062;51.164;16.924;2023-11-19T17:59:27;32.80;39.00
21801;DHT22;11062;51.164;16.924;2023-11-19T18:01:53;32.50;39.20
21801;DHT22;11062;51.164;16.924;2023-11-19T18:04:23;32.40;39.30
21801;DHT22;11062;51.164;16.924;2023-11-19T18:06:49;32.40;39.50
21801;DHT22;11062;51.164;16.924;2023-11-19T18:35:04;31.50;39.90
21801;DHT22;11062;51.164;16.924;2023-11-19T18:57:11;31.60;40.00
21801;DHT22;11062;51.164;16.924;2023-11-19T19:27:52;32.60;39.60
21801;DHT22;11062;51.164;16.924;2023-11-19T19:30:18;32.60;39.40
21801;DHT22;11062;51.164;16.924;2023-11-19T19:32:46;32.60;39.40
21801;DHT22;11062;51.164;16.924;2023-11-19T19:35:17;32.70;39.40
21801;DHT22;11062;51.164;16.924;2023-11-19T19:56:38;32.00;39.60
21801;DHT22;11062;51.164;16.924;2023-11-19T19:59:04;32.00;39.70
21801;DHT22;11062;51.164;16.924;2023-11-19T20:01:31;32.10;39.90
21801;DHT22;11062;51.164;16.924;2023-11-19T20:03:57;32.20;39.70
21801;DHT22;11062;51.164;16.924;2023-11-19T20:06:23;32.30;40.30
21801;DHT22;11062;51.164;16.924;2023-11-19T20:08:50;32.40;39.60
21801;DHT22;11062;51.164;16.924;2023-11-19T20:11:16;32.50;39.60
21801;DHT22;11062;51.164;16.924;2023-11-19T20:13:43;32.60;39.50
21801;DHT22;11062;51.164;16.924;2023-11-19T20:16:12;32.60;39.40
21801;DHT22;11062;51.164;16.924;2023-11-19T20:18:38;32.70;39.30
21801;DHT22;11062;51.164;16.924;2023-11-19T20:21:04;32.70;39.30
21801;DHT22;11062;51.164;16.924;2023-11-19T20:23:34;32.80;39.30
21801;DHT22;11062;51.164;16.924;2023-11-19T20:26:00;32.70;39.20
21801;DHT22;11062;51.164;16.924;2023-11-19T20:28:26;32.70;39.30
21801;DHT22;11062;51.164;16.924;2023-11-19T20:30:52;32.50;39.50
21801;DHT22;11062;51.164;16.924;2023-11-19T20:33:19;32.50;39.60
21801;DHT22;11062;51.164;16.924;2023-11-19T20:35:47;32.40;39.70
21801;DHT22;11062;51.164;16.924;2023-11-19T20:38:16;32.50;39.80
21801;DHT22;11062;51.164;16.924;2023-11-19T20:40:45;32.60;39.70
21801;DHT22;11062;51.164;16.924;2023-11-19T20:43:11;32.70;39.60
21801;DHT22;11062;51.164;16.924;2023-11-19T20:45:37;32.60;39.50
21801;DHT22;11062;51.164;16.924;2023-11-19T20:48:05;32.60;39.70
21801;DHT22;11062;51.164;16.924;2023-11-19T20:50:39;32.40;39.50
21801;DHT22;11062;51.164;16.924;2023-11-19T20:53:06;32.20;39.90
21801;DHT22;11062;51.164;16.924;2023-11-19T20:55:34;31.90;40.00
21801;DHT22;11062;51.164;16.924;2023-11-19T20:58:01;31.60;40.50
21801;DHT22;11062;51.164;16.924;2023-11-19T21:00:35;31.80;40.50
21801;DHT22;11062;51.164;16.924;2023-11-19T21:03:03;31.70;40.60
21801;DHT22;11062;51.164;16.924;2023-11-19T21:05:32;31.40;40.60
21801;DHT22;11062;51.164;16.924;2023-11-19T21:07:58;31.30;40.40
21801;DHT22;11062;51.164;16.924;2023-11-19T22:25:34;32.20;41.00
21801;DHT22;11062;51.164;16.924;2023-11-19T22:32:13;32.10;40.90
21801;DHT22;11062;51.164;16.924;2023-11-19T22:34:39;32.00;41.00
21801;DHT22;11062;51.164;16.924;2023-11-19T22:37:05;32.00;40.90
21801;DHT22;11062;51.164;16.924;2023-11-19T22:39:31;31.90;40.70
21801;DHT22;11062;51.164;16.924;2023-11-19T22:41:57;31.90;40.70
21801;DHT22;11062;51.164;16.924;2023-11-19T22:44:25;31.80;40.70
21801;DHT22;11062;51.164;16.924;2023-11-19T22:46:56;31.90;40.60
21801;DHT22;11062;51.164;16.924;2023-11-19T23:39:42;31.40;39.80
